Time;durP1;ratioP1;P1;durP2;ratioP2;P2;SDS_P1;SDS_P2;PMS_P1;PMS_P2;Temp;Humidity;BMP_temperature;BMP_pressure;BME280_temperature;BME280_humidity;BME280_pressure;Samples;Min_cycle;Max_cycle;Signal;HPM_P1;HPM_P2
2022/03/16 00:02:20;;;;;;;43.10;17.27;;;;;;;;;;10345558;28;20232;-80
2022/03/16 00:07:22;;;;;;;29.80;15.60;;;;;;;;;;10352261;28;20586;-82
2022/03/16 00:12:23;;;;;;;28.83;15.10;;;;;;;;;;10349855;28;20295;-82
2022/03/16 00:17:24;;;;;;;29.60;15.38;;;;;;;;;;10346042;28;20358;-80
2022/03/16 00:22:25;;;;;;;31.38;15.95;;;;;;;;;;10348429;28;20287;-81
2022/03/16 00:27:26;;;;;;;35.78;16.13;;;;;;;;;;10348589;28;20629;-80
2022/03/16 00:32:27;;;;;;;34.47;15.70;;;;;;;;;;10347584;28;20331;-78
2022/03/16 00:37:28;;;;;;;31.20;14.77;;;;;;;;;;10375504;28;20238;-80
2022/03/16 00:42:30;;;;;;;30.58;15.05;;;;;;;;;;10343194;28;20255;-80
2022/03/16 00:47:31;;;;;;;31.70;15.98;;;;;;;;;;10343776;28;20703;-79
2022/03/16 00:52:32;;;;;;;31.20;15.52;;;;;;;;;;10378691;28;20200;-80
2022/03/16 00:57:33;;;;;;;33.10;14.75;;;;;;;;;;10354777;28;20308;-80
2022/03/16 01:02:36;;;;;;;29.35;14.45;;;;;;;;;;10385755;28;20354;-80
2022/03/16 01:07:38;;;;;;;29.65;13.68;;;;;;;;;;10357879;28;20216;-83
2022/03/16 01:12:39;;;;;;;30.25;14.48;;;;;;;;;;10353294;28;20203;-82
2022/03/16 01:17:40;;;;;;;24.48;13.38;;;;;;;;;;10353710;28;20218;-80
2022/03/16 01:22:41;;;;;;;29.70;15.38;;;;;;;;;;10362997;28;20332;-80
2022/03/16 01:27:42;;;;;;;24.33;13.43;;;;;;;;;;10351977;28;20295;-79
2022/03/16 01:32:44;;;;;;;34.50;15.45;;;;;;;;;;10351218;28;20278;-80
2022/03/16 01:37:46;;;;;;;31.00;14.48;;;;;;;;;;10382839;28;20201;-81
2022/03/16 01:42:47;;;;;;;28.65;13.40;;;;;;;;;;10350739;28;20294;-80
2022/03/16 01:47:48;;;;;;;23.15;12.20;;;;;;;;;;10347301;28;20909;-80
2022/03/16 01:52:49;;;;;;;21.23;12.60;;;;;;;;;;10352732;28;20204;-77
2022/03/16 01:57:50;;;;;;;20.45;11.40;;;;;;;;;;10377968;28;20267;-79
2022/03/16 02:02:51;;;;;;;25.33;12.68;;;;;;;;;;10382531;28;20216;-81
2022/03/16 02:07:52;;;;;;;22.83;12.10;;;;;;;;;;10380519;28;20213;-81
2022/03/16 02:12:53;;;;;;;30.98;14.85;;;;;;;;;;10345333;28;20188;-81
2022/03/16 02:17:55;;;;;;;33.25;16.20;;;;;;;;;;10342842;28;20231;-78
2022/03/16 02:22:57;;;;;;;43.60;17.50;;;;;;;;;;10342281;28;20208;-81
2022/03/16 02:27:58;;;;;;;39.53;18.88;;;;;;;;;;10346016;28;20260;-80
2022/03/16 02:32:59;;;;;;;42.03;18.60;;;;;;;;;;10344739;28;20294;-79
2022/03/16 02:38:01;;;;;;;38.92;18.85;;;;;;;;;;10343678;28;20455;-78
2022/03/16 02:43:02;;;;;;;42.33;17.90;;;;;;;;;;10347727;28;20665;-78
2022/03/16 02:48:03;;;;;;;43.05;17.95;;;;;;;;;;10344460;28;20216;-78
2022/03/16 02:53:05;;;;;;;41.63;21.15;;;;;;;;;;10343571;28;20221;-78
2022/03/16 02:58:07;;;;;;;45.28;20.17;;;;;;;;;;10343949;28;20684;-77
2022/03/16 03:03:08;;;;;;;35.97;18.52;;;;;;;;;;10339797;28;20306;-78
2022/03/16 03:08:09;;;;;;;42.78;18.17;;;;;;;;;;10341360;28;20211;-79
2022/03/16 03:13:11;;;;;;;30.67;16.33;;;;;;;;;;10344682;28;20390;-80
2022/03/16 03:18:12;;;;;;;37.60;17.48;;;;;;;;;;10344582;28;20262;-78
2022/03/16 03:23:13;;;;;;;32.95;16.60;;;;;;;;;;10345271;28;20204;-73
2022/03/16 03:28:16;;;;;;;33.97;16.63;;;;;;;;;;10339680;28;20216;-80
2022/03/16 03:33:17;;;;;;;30.42;15.55;;;;;;;;;;10339777;28;20216;-78
2022/03/16 03:38:19;;;;;;;30.77;16.20;;;;;;;;;;10343608;28;20208;-79
2022/03/16 03:43:20;;;;;;;29.23;15.73;;;;;;;;;;10342270;28;20603;-78
2022/03/16 03:48:21;;;;;;;32.22;15.00;;;;;;;;;;10340049;28;20306;-79
2022/03/16 03:53:22;;;;;;;23.10;13.38;;;;;;;;;;10341256;28;20572;-77
2022/03/16 03:58:23;;;;;;;28.05;14.55;;;;;;;;;;10338014;28;20599;-79
2022/03/16 04:03:25;;;;;;;23.58;13.73;;;;;;;;;;10343920;28;20224;-78
2022/03/16 04:08:26;;;;;;;28.08;14.18;;;;;;;;;;10339206;28;20212;-77
2022/03/16 04:13:27;;;;;;;26.52;14.25;;;;;;;;;;10341348;28;20912;-78
2022/03/16 04:18:28;;;;;;;27.02;14.32;;;;;;;;;;10338397;28;20216;-78
2022/03/16 04:23:29;;;;;;;24.35;14.35;;;;;;;;;;10341415;28;20224;-78
2022/03/16 04:28:30;;;;;;;29.05;14.93;;;;;;;;;;10338464;28;20201;-78
2022/03/16 04:33:31;;;;;;;25.13;14.10;;;;;;;;;;10341261;28;20216;-78
2022/03/16 04:38:33;;;;;;;29.30;13.93;;;;;;;;;;10338560;28;20204;-78
2022/03/16 04:43:34;;;;;;;27.02;12.70;;;;;;;;;;10341505;28;20348;-77
2022/03/16 04:48:35;;;;;;;27.77;13.48;;;;;;;;;;10341162;28;20616;-78
2022/03/16 04:53:36;;;;;;;26.80;13.40;;;;;;;;;;10339163;28;20197;-78
2022/03/16 04:58:38;;;;;;;24.58;13.15;;;;;;;;;;10344538;28;20203;-78
2022/03/16 05:03:39;;;;;;;35.92;16.13;;;;;;;;;;10376182;28;20272;-79
2022/03/16 05:08:40;;;;;;;40.70;18.63;;;;;;;;;;10335306;28;20299;-79
2022/03/16 05:13:44;;;;;;;38.08;18.42;;;;;;;;;;10341848;28;20232;-77
2022/03/16 05:18:45;;;;;;;39.45;18.25;;;;;;;;;;10340615;28;20201;-78
2022/03/16 05:23:46;;;;;;;43.00;19.08;;;;;;;;;;10337561;28;20308;-78
2022/03/16 05:28:47;;;;;;;56.25;21.48;;;;;;;;;;10339356;28;20204;-78
2022/03/16 05:33:49;;;;;;;56.30;21.98;;;;;;;;;;10338448;28;20232;-78
2022/03/16 05:38:50;;;;;;;59.10;23.33;;;;;;;;;;10341604;28;20232;-79
2022/03/16 05:43:51;;;;;;;58.22;23.65;;;;;;;;;;10344744;28;20208;-78
2022/03/16 05:48:54;;;;;;;72.18;24.65;;;;;;;;;;10345169;28;20227;-78
2022/03/16 05:53:55;;;;;;;69.45;24.25;;;;;;;;;;10349757;28;20239;-78
2022/03/16 05:58:56;;;;;;;69.15;23.77;;;;;;;;;;10348021;28;20216;-78
2022/03/16 06:03:57;;;;;;;56.08;22.70;;;;;;;;;;10354392;28;20757;-78
2022/03/16 06:08:58;;;;;;;58.47;23.20;;;;;;;;;;10351757;28;20283;-77
2022/03/16 06:13:59;;;;;;;39.95;21.08;;;;;;;;;;10343424;28;20243;-79
2022/03/16 06:19:01;;;;;;;48.13;22.48;;;;;;;;;;10340468;28;20728;-79
2022/03/16 06:24:02;;;;;;;42.45;20.73;;;;;;;;;;10354184;28;20212;-83
2022/03/16 06:29:03;;;;;;;45.03;20.85;;;;;;;;;;10355635;28;20228;-83
2022/03/16 06:34:04;;;;;;;49.65;21.20;;;;;;;;;;10388006;28;20212;-83
2022/03/16 06:39:05;;;;;;;47.78;21.85;;;;;;;;;;10358838;28;20813;-83
2022/03/16 06:44:06;;;;;;;53.78;22.95;;;;;;;;;;10362664;28;20215;-83
2022/03/16 06:49:07;;;;;;;50.13;21.90;;;;;;;;;;10358523;28;20731;-82
2022/03/16 06:54:08;;;;;;;42.60;20.42;;;;;;;;;;10359969;28;20235;-82
2022/03/16 06:59:09;;;;;;;52.08;21.70;;;;;;;;;;10388506;28;20246;-84
2022/03/16 07:04:10;;;;;;;49.97;23.25;;;;;;;;;;10360588;28;20223;-85
2022/03/16 07:09:12;;;;;;;47.90;21.17;;;;;;;;;;10357408;28;20197;-85
2022/03/16 07:14:31;;;;;;;43.63;20.23;;;;;;;;;;10360574;28;20214;-84
2022/03/16 07:19:35;;;;;;;37.92;20.25;;;;;;;;;;10358682;28;20213;-82
2022/03/16 07:24:36;;;;;;;43.05;19.38;;;;;;;;;;10353096;28;20203;-82
2022/03/16 07:29:37;;;;;;;35.38;18.80;;;;;;;;;;10347186;28;20254;-81
2022/03/16 07:34:38;;;;;;;29.35;16.75;;;;;;;;;;10346908;28;20221;-80
2022/03/16 07:39:40;;;;;;;32.13;16.30;;;;;;;;;;10351265;28;20261;-79
2022/03/16 07:44:41;;;;;;;29.40;16.75;;;;;;;;;;10339622;28;20242;-79
2022/03/16 07:49:42;;;;;;;27.80;16.67;;;;;;;;;;10348842;28;20197;-82
2022/03/16 07:54:43;;;;;;;27.90;15.02;;;;;;;;;;10346519;28;20206;-80
2022/03/16 07:59:44;;;;;;;31.30;15.88;;;;;;;;;;10342046;28;20247;-79
2022/03/16 08:04:45;;;;;;;28.63;15.27;;;;;;;;;;10350127;28;20228;-79
2022/03/16 08:09:49;;;;;;;27.23;14.52;;;;;;;;;;10339061;28;20262;-80
2022/03/16 08:14:50;;;;;;;26.45;14.55;;;;;;;;;;10342137;28;20223;-71
2022/03/16 08:19:51;;;;;;;29.85;14.55;;;;;;;;;;10344442;28;20267;-79
2022/03/16 08:24:52;;;;;;;29.35;14.10;;;;;;;;;;10342427;28;20216;-79
2022/03/16 08:29:54;;;;;;;26.10;13.23;;;;;;;;;;10348326;28;20200;-81
2022/03/16 08:34:55;;;;;;;24.60;12.85;;;;;;;;;;10353947;28;20220;-83
2022/03/16 08:39:56;;;;;;;24.17;12.68;;;;;;;;;;10353740;28;20235;-81
2022/03/16 08:44:57;;;;;;;21.67;12.20;;;;;;;;;;10357384;28;20227;-86
2022/03/16 08:49:58;;;;;;;20.38;12.73;;;;;;;;;;10358238;28;20282;-84
2022/03/16 08:54:59;;;;;;;17.75;12.00;;;;;;;;;;10360366;28;20273;-85
2022/03/16 09:00:00;;;;;;;16.98;11.57;;;;;;;;;;10363072;28;20215;-83
2022/03/16 09:05:01;;;;;;;14.43;11.15;;;;;;;;;;10353509;28;20252;-84
2022/03/16 09:10:02;;;;;;;19.08;10.48;;;;;;;;;;10356558;28;20213;-84
2022/03/16 09:15:04;;;;;;;14.52;8.82;;;;;;;;;;10368215;28;20216;-83
2022/03/16 09:20:06;;;;;;;18.08;10.45;;;;;;;;;;10373874;28;20196;-82
2022/03/16 09:25:07;;;;;;;16.05;9.35;;;;;;;;;;10369604;28;20216;-80
2022/03/16 09:30:08;;;;;;;18.77;8.55;;;;;;;;;;10357153;28;20247;-84
2022/03/16 09:35:10;;;;;;;15.85;10.02;;;;;;;;;;10351476;28;20224;-82
2022/03/16 09:40:12;;;;;;;14.63;9.35;;;;;;;;;;10357717;28;20231;-81
2022/03/16 09:45:17;;;;;;;15.70;8.88;;;;;;;;;;10352313;28;20221;-80
2022/03/16 09:50:19;;;;;;;16.13;10.52;;;;;;;;;;10349635;28;20231;-81
2022/03/16 09:55:21;;;;;;;18.15;10.23;;;;;;;;;;10347492;28;20208;-79
2022/03/16 10:00:22;;;;;;;14.05;9.38;;;;;;;;;;10344154;28;20953;-79
2022/03/16 10:05:27;;;;;;;15.07;9.55;;;;;;;;;;10352880;28;20217;-81
2022/03/16 10:15:55;;;;;;;21.98;9.85;;;;;;;;;;10346562;28;20704;-81
2022/03/16 10:20:56;;;;;;;13.88;9.70;;;;;;;;;;10383042;28;20282;-81
2022/03/16 10:26:02;;;;;;;12.57;8.88;;;;;;;;;;10350578;28;20907;-80
2022/03/16 10:31:07;;;;;;;11.88;8.38;;;;;;;;;;10351203;28;20204;-81
2022/03/16 10:36:12;;;;;;;15.52;9.48;;;;;;;;;;10344762;28;20576;-80
2022/03/16 10:46:46;;;;;;;15.30;8.82;;;;;;;;;;10345939;28;20205;-80
2022/03/16 10:51:59;;;;;;;10.27;8.18;;;;;;;;;;10342315;28;20200;-78
2022/03/16 10:57:02;;;;;;;12.93;7.63;;;;;;;;;;10345720;28;20235;-79
2022/03/16 11:02:03;;;;;;;8.85;7.20;;;;;;;;;;10344226;28;20224;-80
2022/03/16 11:07:05;;;;;;;13.05;7.97;;;;;;;;;;10344141;28;20233;-79
2022/03/16 11:17:27;;;;;;;10.48;7.53;;;;;;;;;;10341908;28;20885;-79
2022/03/16 11:22:34;;;;;;;10.27;6.63;;;;;;;;;;10337746;28;20335;-78
2022/03/16 11:27:49;;;;;;;11.32;6.47;;;;;;;;;;10346253;28;20807;-77
2022/03/16 11:32:56;;;;;;;8.70;6.45;;;;;;;;;;10343033;28;20192;-73
2022/03/16 11:38:02;;;;;;;10.95;6.60;;;;;;;;;;10341877;28;20247;-80
2022/03/16 11:43:04;;;;;;;7.40;6.13;;;;;;;;;;10346623;28;20240;-80
2022/03/16 11:48:23;;;;;;;7.82;6.28;;;;;;;;;;10338528;28;20727;-80
2022/03/16 11:53:25;;;;;;;8.75;6.68;;;;;;;;;;10341314;28;20205;-81
2022/03/16 11:58:30;;;;;;;9.32;7.30;;;;;;;;;;10341661;28;20767;-78
2022/03/16 12:03:42;;;;;;;14.65;7.00;;;;;;;;;;10340077;28;20291;-79
2022/03/16 12:08:53;;;;;;;15.27;7.20;;;;;;;;;;10344380;28;20216;-78
2022/03/16 12:13:55;;;;;;;8.85;7.22;;;;;;;;;;10335574;28;20200;-77
2022/03/16 12:18:56;;;;;;;10.57;7.20;;;;;;;;;;10340020;28;20606;-77
2022/03/16 12:25:08;;;;;;;10.27;7.57;;;;;;;;;;10337071;28;20735;-75
2022/03/16 12:29:24;;;;;;;10.25;6.85;;;;;;;;;;10345374;28;20582;-78
2022/03/16 12:34:26;;;;;;;9.95;7.57;;;;;;;;;;10342715;28;20216;-78
2022/03/16 12:39:29;;;;;;;11.52;7.70;;;;;;;;;;10339008;28;20267;-77
2022/03/16 12:44:36;;;;;;;10.80;7.47;;;;;;;;;;10334341;28;20224;-76
2022/03/16 12:49:46;;;;;;;10.02;6.90;;;;;;;;;;10333580;28;20331;-77
2022/03/16 12:54:47;;;;;;;10.52;7.43;;;;;;;;;;10337786;28;20204;-77
2022/03/16 12:59:53;;;;;;;11.55;7.25;;;;;;;;;;10337415;28;20685;-75
2022/03/16 13:04:56;;;;;;;9.95;7.13;;;;;;;;;;10337934;28;20204;-76
2022/03/16 13:10:00;;;;;;;8.10;6.40;;;;;;;;;;10341774;28;20200;-76
2022/03/16 13:15:02;;;;;;;7.53;6.18;;;;;;;;;;10340110;28;20212;-75
2022/03/16 13:20:03;;;;;;;7.15;6.30;;;;;;;;;;10343581;28;20234;-72
2022/03/16 13:25:07;;;;;;;7.63;5.90;;;;;;;;;;10340998;28;20240;-77
2022/03/16 13:30:12;;;;;;;7.45;5.38;;;;;;;;;;10338807;28;20208;-78
2022/03/16 13:35:21;;;;;;;7.45;6.18;;;;;;;;;;10339261;28;20201;-78
2022/03/16 13:40:26;;;;;;;8.82;6.18;;;;;;;;;;10342631;28;20302;-77
2022/03/16 13:45:30;;;;;;;6.63;6.03;;;;;;;;;;10340813;28;20947;-76
2022/03/16 13:50:31;;;;;;;10.30;6.93;;;;;;;;;;10340641;28;20751;-77
2022/03/16 13:55:35;;;;;;;7.60;6.65;;;;;;;;;;10337850;28;20215;-77
2022/03/16 14:00:44;;;;;;;8.48;6.28;;;;;;;;;;10332163;28;20213;-77
2022/03/16 14:05:45;;;;;;;6.53;5.25;;;;;;;;;;10340093;28;20303;-77
2022/03/16 14:10:50;;;;;;;6.93;5.38;;;;;;;;;;10336613;28;20216;-77
2022/03/16 14:16:11;;;;;;;6.80;5.78;;;;;;;;;;10337779;28;21228;-77
2022/03/16 14:21:12;;;;;;;7.53;5.47;;;;;;;;;;10370611;28;20215;-77
2022/03/16 14:26:17;;;;;;;5.70;5.20;;;;;;;;;;10336545;28;20597;-78
2022/03/16 14:31:18;;;;;;;6.38;5.78;;;;;;;;;;10344869;28;20213;-77
2022/03/16 14:36:26;;;;;;;5.65;5.15;;;;;;;;;;10340762;28;20348;-77
2022/03/16 14:41:27;;;;;;;4.72;4.28;;;;;;;;;;10341600;28;20236;-76
2022/03/16 14:46:28;;;;;;;6.10;5.47;;;;;;;;;;10343050;28;20205;-76
2022/03/16 14:51:30;;;;;;;7.93;5.18;;;;;;;;;;10340147;28;21148;-76
2022/03/16 14:56:31;;;;;;;5.63;5.10;;;;;;;;;;10338312;28;20201;-80
2022/03/16 15:01:32;;;;;;;9.07;6.00;;;;;;;;;;10351175;28;20211;-78
2022/03/16 15:06:33;;;;;;;5.97;5.10;;;;;;;;;;10345651;28;20756;-77
2022/03/16 15:11:35;;;;;;;7.35;5.18;;;;;;;;;;10342034;28;20204;-77
2022/03/16 15:16:36;;;;;;;6.03;5.47;;;;;;;;;;10339872;28;20928;-76
2022/03/16 15:21:37;;;;;;;5.20;4.80;;;;;;;;;;10339098;28;20304;-76
2022/03/16 15:26:40;;;;;;;7.75;4.97;;;;;;;;;;10341365;28;20766;-76
2022/03/16 15:31:41;;;;;;;5.63;5.18;;;;;;;;;;10346375;28;20310;-76
2022/03/16 15:36:42;;;;;;;5.05;4.57;;;;;;;;;;10334112;28;20900;-76
2022/03/16 15:47:03;;;;;;;6.28;4.47;;;;;;;;;;10338621;28;20754;-76
2022/03/16 15:52:05;;;;;;;5.95;4.45;;;;;;;;;;10335060;28;20228;-76
2022/03/16 15:57:06;;;;;;;5.07;4.68;;;;;;;;;;10335135;28;20272;-78
2022/03/16 16:02:07;;;;;;;6.00;5.15;;;;;;;;;;10336624;28;20219;-76
2022/03/16 16:07:10;;;;;;;9.45;5.47;;;;;;;;;;10337898;28;20243;-76
2022/03/16 16:12:11;;;;;;;7.43;5.53;;;;;;;;;;10338864;28;20284;-77
2022/03/16 16:17:12;;;;;;;6.72;5.43;;;;;;;;;;10337487;28;20204;-77
2022/03/16 16:22:13;;;;;;;5.78;4.85;;;;;;;;;;10339737;28;20205;-78
2022/03/16 16:27:14;;;;;;;7.53;5.32;;;;;;;;;;10338618;28;20216;-77
2022/03/16 16:32:15;;;;;;;6.70;4.88;;;;;;;;;;10339255;28;20274;-77
2022/03/16 16:37:16;;;;;;;4.55;3.72;;;;;;;;;;10339025;28;20200;-77
2022/03/16 16:47:40;;;;;;;6.65;5.00;;;;;;;;;;10338598;28;20211;-77
2022/03/16 16:52:42;;;;;;;6.15;4.68;;;;;;;;;;10340125;28;20200;-76
2022/03/16 16:57:43;;;;;;;6.45;3.80;;;;;;;;;;10340535;28;20636;-77
2022/03/16 17:02:48;;;;;;;3.55;3.33;;;;;;;;;;10337570;28;20294;-77
2022/03/16 17:07:49;;;;;;;3.72;3.53;;;;;;;;;;10337181;28;20220;-77
2022/03/16 17:12:51;;;;;;;5.60;4.68;;;;;;;;;;10339036;28;20212;-76
2022/03/16 17:17:53;;;;;;;5.22;4.70;;;;;;;;;;10336586;28;20216;-78
2022/03/16 17:22:55;;;;;;;9.35;5.22;;;;;;;;;;10336705;28;20603;-77
2022/03/16 17:27:56;;;;;;;8.38;6.07;;;;;;;;;;10336453;28;20228;-77
2022/03/16 17:32:58;;;;;;;10.60;5.50;;;;;;;;;;10338205;28;20619;-76
2022/03/16 17:38:00;;;;;;;8.15;5.07;;;;;;;;;;10346692;28;20204;-77
2022/03/16 17:48:22;;;;;;;7.35;5.20;;;;;;;;;;10345813;28;20308;-75
2022/03/16 17:53:24;;;;;;;9.35;5.72;;;;;;;;;;10341916;28;20262;-75
2022/03/16 17:58:26;;;;;;;12.25;6.55;;;;;;;;;;10346609;28;20209;-75
2022/03/16 18:03:27;;;;;;;13.13;7.90;;;;;;;;;;10342024;28;20255;-75
2022/03/16 18:08:28;;;;;;;12.95;8.50;;;;;;;;;;10343781;28;20220;-75
2022/03/16 18:13:30;;;;;;;13.50;8.05;;;;;;;;;;10345687;28;20792;-75
2022/03/16 18:18:32;;;;;;;13.20;7.43;;;;;;;;;;10342362;28;20837;-76
2022/03/16 18:23:35;;;;;;;10.75;7.20;;;;;;;;;;10342399;28;20738;-75
2022/03/16 18:28:36;;;;;;;8.73;7.55;;;;;;;;;;10343895;28;20274;-75
2022/03/16 18:33:38;;;;;;;11.10;7.28;;;;;;;;;;10344991;28;20266;-75
2022/03/16 18:38:40;;;;;;;9.73;7.55;;;;;;;;;;10338355;28;20695;-75
2022/03/16 18:43:42;;;;;;;10.65;7.05;;;;;;;;;;10343514;28;20216;-75
2022/03/16 18:48:43;;;;;;;10.43;7.15;;;;;;;;;;10348152;28;20209;-74
2022/03/16 18:53:45;;;;;;;10.10;7.40;;;;;;;;;;10347823;28;20219;-74
2022/03/16 18:58:46;;;;;;;9.10;8.20;;;;;;;;;;10345510;28;20204;-77
2022/03/16 19:03:47;;;;;;;13.15;8.50;;;;;;;;;;10345264;28;20211;-76
2022/03/16 19:08:48;;;;;;;12.32;8.45;;;;;;;;;;10341250;28;20216;-76
2022/03/16 19:13:50;;;;;;;18.30;9.13;;;;;;;;;;10345839;28;20668;-76
2022/03/16 19:18:53;;;;;;;17.05;9.65;;;;;;;;;;10344626;28;20215;-75
2022/03/16 19:23:55;;;;;;;14.07;10.70;;;;;;;;;;10342452;28;20208;-76
2022/03/16 19:28:56;;;;;;;22.35;11.70;;;;;;;;;;10338792;28;21162;-76
2022/03/16 19:33:57;;;;;;;15.55;11.05;;;;;;;;;;10339735;28;20315;-77
2022/03/16 19:39:02;;;;;;;18.70;11.80;;;;;;;;;;10342437;28;20637;-77
2022/03/16 19:44:04;;;;;;;17.25;12.10;;;;;;;;;;10340390;28;20220;-78
2022/03/16 19:49:05;;;;;;;17.15;12.48;;;;;;;;;;10339759;28;20208;-74
2022/03/16 19:54:06;;;;;;;19.58;13.07;;;;;;;;;;10342558;28;20197;-76
2022/03/16 19:59:07;;;;;;;20.75;13.75;;;;;;;;;;10341156;28;20211;-75
2022/03/16 20:04:08;;;;;;;18.38;13.35;;;;;;;;;;10339678;28;20221;-75
2022/03/16 20:09:09;;;;;;;21.05;13.68;;;;;;;;;;10339696;28;20208;-75
2022/03/16 20:14:10;;;;;;;21.08;14.32;;;;;;;;;;10339389;28;20200;-73
2022/03/16 20:19:15;;;;;;;23.23;14.52;;;;;;;;;;10337883;28;20753;-75
2022/03/16 20:24:16;;;;;;;19.73;14.05;;;;;;;;;;10333316;28;20583;-73
2022/03/16 20:29:18;;;;;;;23.50;15.48;;;;;;;;;;10338927;28;20954;-75
2022/03/16 20:34:19;;;;;;;22.33;15.15;;;;;;;;;;10336957;28;20303;-76
2022/03/16 20:39:21;;;;;;;22.10;14.85;;;;;;;;;;10333180;28;20243;-75
2022/03/16 20:44:25;;;;;;;23.95;15.77;;;;;;;;;;10336319;28;20202;-74
2022/03/16 20:49:26;;;;;;;22.85;16.63;;;;;;;;;;10336524;28;20696;-75
2022/03/16 20:54:27;;;;;;;25.42;16.80;;;;;;;;;;10340514;28;21060;-76
2022/03/16 21:04:54;;;;;;;23.92;16.48;;;;;;;;;;10337414;28;20234;-76
2022/03/16 21:09:57;;;;;;;26.35;17.27;;;;;;;;;;10340294;28;20211;-75
2022/03/16 21:14:58;;;;;;;26.73;17.52;;;;;;;;;;10342129;28;20208;-75
2022/03/16 21:19:59;;;;;;;27.65;18.15;;;;;;;;;;10338301;28;20196;-76
2022/03/16 21:25:00;;;;;;;26.80;18.25;;;;;;;;;;10344727;28;20642;-76
2022/03/16 21:30:01;;;;;;;29.40;19.17;;;;;;;;;;10344863;28;20208;-75
2022/03/16 21:35:03;;;;;;;29.50;16.88;;;;;;;;;;10343924;28;20222;-76
2022/03/16 21:50:34;;;;;;;32.25;20.10;;;;;;;;;;10339831;28;20280;-74
2022/03/16 21:55:35;;;;;;;32.83;20.92;;;;;;;;;;10345489;28;20209;-74
2022/03/16 22:00:37;;;;;;;36.35;22.10;;;;;;;;;;10339657;28;20684;-75
2022/03/16 22:05:38;;;;;;;35.10;21.35;;;;;;;;;;10340689;28;20315;-75
2022/03/16 22:10:40;;;;;;;35.47;22.20;;;;;;;;;;10337088;28;20259;-75
2022/03/16 22:15:41;;;;;;;42.17;23.58;;;;;;;;;;10340212;28;20606;-75
2022/03/16 22:26:03;;;;;;;41.40;25.25;;;;;;;;;;10343040;28;20332;-76
2022/03/16 22:31:04;;;;;;;45.60;27.55;;;;;;;;;;10338233;28;20229;-76
2022/03/16 22:36:05;;;;;;;44.15;27.33;;;;;;;;;;10342179;28;20608;-75
2022/03/16 22:41:06;;;;;;;43.55;26.92;;;;;;;;;;10341810;28;20553;-76
2022/03/16 22:46:08;;;;;;;48.10;27.58;;;;;;;;;;10337543;28;20578;-76
2022/03/16 22:51:09;;;;;;;48.13;27.23;;;;;;;;;;10339191;28;20216;-77
2022/03/16 22:56:10;;;;;;;48.38;28.83;;;;;;;;;;10336998;28;20205;-74
2022/03/16 23:01:12;;;;;;;51.17;28.58;;;;;;;;;;10338312;28;20219;-76
2022/03/16 23:06:14;;;;;;;60.60;29.15;;;;;;;;;;10336765;28;20235;-76
2022/03/16 23:11:15;;;;;;;52.35;29.33;;;;;;;;;;10334284;28;20204;-76
2022/03/16 23:16:16;;;;;;;52.95;29.23;;;;;;;;;;10337858;28;20652;-77
2022/03/16 23:21:17;;;;;;;49.35;29.73;;;;;;;;;;10339325;28;20201;-76
2022/03/16 23:26:18;;;;;;;54.85;31.23;;;;;;;;;;10345030;28;20713;-77
2022/03/16 23:31:19;;;;;;;56.78;29.33;;;;;;;;;;10336433;28;20231;-76
2022/03/16 23:36:21;;;;;;;54.70;30.88;;;;;;;;;;10340240;28;20220;-76
2022/03/16 23:41:23;;;;;;;52.50;30.55;;;;;;;;;;10340257;28;20258;-76
2022/03/16 23:46:27;;;;;;;51.15;30.60;;;;;;;;;;10335528;28;20299;-77
2022/03/16 23:51:28;;;;;;;54.70;29.38;;;;;;;;;;10342772;28;20254;-77
2022/03/16 23:56:29;;;;;;;52.35;29.35;;;;;;;;;;10340544;28;20204;-77
